Fort Huachuca, AZ (85613)

4:37 AM MST on January 29, 2015 (GMT -0700)
Pershing Plaza West | Change Station
CLOSE
Current Station
Personal Weather Station
Location: Fort Huachuca, AZ
Elevation: 4915 ft
Nearby Weather Stations

Elev 4915 ft 31.56 °N, 110.35 °W | Updated 4 seconds ago

Scattered Clouds
Scattered Clouds
52.3 °F
Feels Like 52.3 °F
N
2.2
Wind Variable Wind from South
Gusts 2.2 mph

Today
High -- | Low -- °F
--% Chance of Precip.
Yesterday
High -- | Low -- °F
Precip. -- in
7:16 AM 5:53 PM
Waxing Gibbous, 73% visible
Pressure 30.07 in
Visibility 10.0 miles
Clouds Few 11000 ft
Scattered Clouds 20000 ft
Dew Point 40 °F
Humidity 62%
Rainfall 0.00 in
Snow Depth Not available.
UV 0 out of 12
Pollen 4.00 out of 12
Air Quality Not available.
Flu Activity Not available.
METAR KFHU 291055Z 00000KT 10SM FEW110 SCT200 09/03 A3017 RMK SLP182

More Conditions Fewer Conditions

Pressure 30.07 in
Visibility 10.0 miles
Clouds Few 11000 ft
Scattered Clouds 20000 ft
Dew Point 40 °F
Humidity 62%
Rainfall 0.00 in
Snow Depth Not available.
UV 0 out of 12
Pollen 4.00 out of 12
Air Quality Not available.
Flu Activity Not available.
METAR KFHU 291055Z 00000KT 10SM FEW110 SCT200 09/03 A3017 RMK SLP182

More Conditions Fewer Conditions

10-Day Weather Forecast

Almanac

Astronomy

Jan. 29, 2015 Rise Set
Actual Time
Civil Twilight
Nautical Twilight
Astronomical Twilight
Moon
Length of Visible Light
Length of Day
Tomorrow will be .
, % of the Moon is Illuminated

Today's Extremes

State Highs State Lows

Community

WunderPhotos

Upload Photos

1,791,407 photos uploaded!

WunderBlogs® & News

Nearby

Air Quality

  Air Quality AQ Index Pollutant
Not available.

Snow Depth

Station Depth Elevation

Earthquake Activity

City Distance Mag. Time & Date
Minimum magnitude displayed is 2.5.

Coastal Water Temperatures

Place Temperature

Nearby Weather Stations